createdAt,value
2022-11-06T00:00:33.657Z,99.90
2022-11-06T00:10:37.119Z,99.03
2022-11-06T00:20:42.529Z,99.77
2022-11-06T00:30:46.059Z,98.87
2022-11-06T00:40:50.832Z,98.53
2022-11-06T00:50:54.283Z,97.27
2022-11-06T01:01:08.361Z,100.37
2022-11-06T01:11:14.477Z,99.33
2022-11-06T01:21:22.576Z,99.47
2022-11-06T01:31:28.507Z,97.80
2022-11-06T01:41:37.058Z,96.03
2022-11-06T01:51:46.799Z,96.70
2022-11-06T02:01:52.612Z,97.33
2022-11-06T02:12:05.140Z,96.83
2022-11-06T02:22:31.487Z,95.70
2022-11-06T02:32:41.877Z,93.87
2022-11-06T02:42:49.899Z,97.17
2022-11-06T02:52:58.148Z,94.47
2022-11-06T03:03:06.867Z,93.60
2022-11-06T03:13:19.492Z,92.87
2022-11-06T03:23:32.085Z,93.87
2022-11-06T03:33:43.248Z,92.20
2022-11-06T03:43:49.291Z,95.43
2022-11-06T03:53:58.012Z,93.33
2022-11-06T04:04:07.596Z,96.03
2022-11-06T04:14:16.359Z,95.87
2022-11-06T04:24:50.536Z,94.60
2022-11-06T04:35:05.613Z,95.43
2022-11-06T04:45:16.091Z,98.10
2022-11-06T04:55:22.522Z,97.20
2022-11-06T05:05:27.365Z,97.03
2022-11-06T05:15:32.448Z,95.53
2022-11-06T05:25:40.279Z,96.17
2022-11-06T05:35:45.537Z,94.23
2022-11-06T05:45:49.290Z,96.70
2022-11-06T05:55:54.186Z,99.30
2022-11-06T06:05:58.024Z,98.97
2022-11-06T06:16:04.660Z,98.20
2022-11-06T06:26:08.361Z,110.00
2022-11-06T06:36:13.941Z,98.10
2022-11-06T06:46:18.482Z,100.70
2022-11-06T06:56:23.833Z,101.57
2022-11-06T07:06:28.098Z,106.60
2022-11-06T07:16:33.731Z,105.90
2022-11-06T07:26:38.010Z,102.73
2022-11-06T07:36:43.385Z,100.60
2022-11-06T07:46:47.253Z,104.17
2022-11-06T07:56:52.398Z,101.93
2022-11-06T08:06:56.165Z,113.77
2022-11-06T08:17:01.524Z,101.80
2022-11-06T08:27:05.648Z,100.37
2022-11-06T08:37:11.372Z,124.77
2022-11-06T08:47:15.331Z,106.47
2022-11-06T08:57:20.594Z,121.27
2022-11-06T09:07:24.366Z,101.33
2022-11-06T09:17:29.724Z,98.00
2022-11-06T09:27:33.973Z,100.97
2022-11-06T09:37:39.310Z,97.90
2022-11-06T09:47:51.369Z,98.67
2022-11-06T09:57:59.920Z,97.63
2022-11-06T10:08:07.771Z,98.97
2022-11-06T10:18:20.999Z,99.37
2022-11-06T10:28:43.361Z,95.27
2022-11-06T10:38:51.066Z,92.27
2022-11-06T10:49:00.305Z,97.43
2022-11-06T10:59:05.489Z,98.57
2022-11-06T11:09:30.815Z,99.50
2022-11-06T11:19:44.355Z,98.90
2022-11-06T11:29:50.130Z,98.03
2022-11-06T11:39:55.881Z,100.77
2022-11-06T11:50:25.147Z,102.03
2022-11-06T12:00:31.397Z,99.93
2022-11-06T12:10:38.939Z,100.10
2022-11-06T12:20:52.507Z,99.07
2022-11-06T12:31:05.452Z,101.67
2022-11-06T12:41:16.797Z,114.57
2022-11-06T12:51:31.464Z,103.83
2022-11-06T13:01:45.778Z,106.67
2022-11-06T13:12:01.927Z,106.13
2022-11-06T13:22:26.634Z,98.53
2022-11-06T13:32:34.642Z,100.73
2022-11-06T13:42:44.547Z,98.87
2022-11-06T13:52:55.796Z,100.53
2022-11-06T14:03:48.422Z,98.43
2022-11-06T14:14:01.921Z,116.37
2022-11-06T14:24:23.996Z,101.03
2022-11-06T14:34:30.393Z,105.53
2022-11-06T14:44:48.440Z,100.47
2022-11-06T14:55:03.494Z,89.10
2022-11-06T15:05:18.033Z,95.67
2022-11-06T15:15:22.527Z,96.00
2022-11-06T15:25:29.772Z,95.27
2022-11-06T15:35:37.326Z,91.97
2022-11-06T15:45:42.628Z,89.77
2022-11-06T15:55:53.194Z,87.87
2022-11-06T16:06:02.352Z,90.63
2022-11-06T16:16:07.300Z,91.43
2022-11-06T16:26:16.666Z,90.13
2022-11-06T16:36:21.388Z,97.30
2022-11-06T16:47:05.144Z,103.97
2022-11-06T16:57:11.208Z,106.93
2022-11-06T17:07:23.382Z,120.13
2022-11-06T17:17:27.956Z,100.00
2022-11-06T17:27:32.885Z,108.73
2022-11-06T17:37:37.281Z,107.60
2022-11-06T17:47:42.633Z,104.10
2022-11-06T17:57:47.328Z,113.07
2022-11-06T18:07:53.057Z,105.30
2022-11-06T18:17:57.014Z,102.93
2022-11-06T18:28:03.875Z,99.03
2022-11-06T18:38:07.930Z,100.27
2022-11-06T18:48:18.290Z,98.87
2022-11-06T18:58:24.786Z,97.57
2022-11-06T19:08:29.950Z,97.97
2022-11-06T19:18:36.374Z,101.47
2022-11-06T19:28:42.134Z,103.27
2022-11-06T19:38:45.893Z,121.30
2022-11-06T19:48:51.045Z,104.33
2022-11-06T19:58:54.860Z,124.50
2022-11-06T20:09:00.062Z,119.10
2022-11-06T20:19:03.698Z,125.60
2022-11-06T20:29:09.028Z,117.57
2022-11-06T20:39:14.570Z,118.87
2022-11-06T20:49:19.705Z,107.33
2022-11-06T20:59:23.846Z,106.47
2022-11-06T21:09:29.108Z,113.23
2022-11-06T21:19:33.370Z,111.10
2022-11-06T21:29:38.833Z,121.63
2022-11-06T21:39:42.650Z,116.13
2022-11-06T21:49:54.169Z,115.30
2022-11-06T21:59:58.836Z,111.83
2022-11-06T22:10:04.141Z,111.80
2022-11-06T22:20:09.263Z,103.60
2022-11-06T22:30:15.242Z,110.27
2022-11-06T22:40:19.057Z,110.20
2022-11-06T22:50:48.207Z,104.97
2022-11-06T23:00:52.285Z,105.57
2022-11-06T23:10:58.047Z,102.63
2022-11-06T23:21:02.380Z,104.83
2022-11-06T23:31:10.550Z,99.57
2022-11-06T23:41:35.463Z,103.93
2022-11-06T23:51:40.762Z,101.33
